Time;durP1;ratioP1;P1;durP2;ratioP2;P2;SDS_P1;SDS_P2;PMS_P1;PMS_P2;Temp;Humidity;BMP_temperature;BMP_pressure;BME280_temperature;BME280_humidity;BME280_pressure;Samples;Min_cycle;Max_cycle;Signal;HPM_P1;HPM_P2
2022/11/02 00:01:15;;;;;;;40.80;24.47;;;;;;;4.65;100.00;99637.09;1804147;79;21010;-67
2022/11/02 00:03:42;;;;;;;46.63;24.35;;;;;;;4.59;100.00;99633.99;1788051;79;21039;-66
2022/11/02 00:06:08;;;;;;;;;;;;;;;4.61;100.00;99633.73;1795432;79;21069;-67
2022/11/02 00:08:36;;;;;;;40.12;21.70;;;;;;;4.65;100.00;99630.34;1804472;79;20121;-66
2022/11/02 00:11:02;;;;;;;38.78;20.85;;;;;;;4.62;100.00;99619.21;1794302;79;21151;-66
2022/11/02 00:13:30;;;;;;;36.25;20.88;;;;;;;4.59;100.00;99608.91;1797601;79;22355;-67
2022/11/02 00:15:56;;;;;;;37.23;21.00;;;;;;;4.53;100.00;99608.51;1786684;79;21373;-67
2022/11/02 00:18:22;;;;;;;;;;;;;;;4.47;100.00;99612.42;1806405;79;21073;-67
2022/11/02 00:20:48;;;;;;;45.52;21.25;;;;;;;4.45;100.00;99616.42;1805216;79;20152;-67
2022/11/02 00:23:15;;;;;;;38.58;19.75;;;;;;;4.37;100.00;99614.89;1784297;80;21486;-67
2022/11/02 00:25:45;;;;;;;34.15;20.30;;;;;;;4.37;100.00;99610.02;1777896;79;21545;-66
2022/11/02 00:28:13;;;;;;;34.88;20.40;;;;;;;4.37;100.00;99608.67;1779652;80;21053;-67
2022/11/02 00:30:40;;;;;;;38.08;19.27;;;;;;;4.34;100.00;99605.93;1772971;80;21074;-66
2022/11/02 00:33:08;;;;;;;37.55;20.15;;;;;;;4.37;100.00;99604.63;1770451;80;21512;-67
2022/11/02 00:35:34;;;;;;;;;;;;;;;4.45;100.00;99599.72;1792760;80;21124;-67
2022/11/02 00:38:01;;;;;;;39.75;21.40;;;;;;;4.51;100.00;99611.42;1790069;79;20328;-67
2022/11/02 00:40:28;;;;;;;;;;;;;;;4.45;100.00;99607.81;1774901;80;21565;-67
2022/11/02 00:42:54;;;;;;;36.63;20.95;;;;;;;4.43;100.00;99607.20;1772314;80;20133;-67
2022/11/02 00:45:21;;;;;;;40.43;20.57;;;;;;;4.37;100.00;99604.63;1768981;80;21093;-66
2022/11/02 00:47:49;;;;;;;41.60;21.87;;;;;;;4.36;100.00;99598.94;1774583;80;22212;-67
2022/11/02 00:50:16;;;;;;;41.20;23.27;;;;;;;4.37;100.00;99607.33;1785017;80;21138;-67
2022/11/02 00:52:43;;;;;;;35.73;21.25;;;;;;;4.36;100.00;99616.46;1787844;79;21365;-67
2022/11/02 00:55:10;;;;;;;44.80;20.90;;;;;;;4.34;100.00;99603.23;1781668;79;20978;-66
2022/11/02 00:57:39;;;;;;;38.50;20.52;;;;;;;4.41;100.00;99610.67;1746271;80;21064;-67
2022/11/02 01:00:08;;;;;;;41.68;21.40;;;;;;;4.51;100.00;99605.52;1759837;79;21049;-67
2022/11/02 01:02:36;;;;;;;39.40;21.82;;;;;;;4.56;100.00;99597.25;1780269;79;21464;-67
2022/11/02 01:05:04;;;;;;;43.98;21.82;;;;;;;4.51;100.00;99601.47;1786685;79;21521;-66
2022/11/02 01:07:30;;;;;;;39.25;20.25;;;;;;;4.49;100.00;99612.20;1784873;79;21359;-67
2022/11/02 01:09:57;;;;;;;42.55;22.85;;;;;;;4.45;100.00;99601.59;1787448;79;21026;-67
2022/11/02 01:12:23;;;;;;;39.53;21.95;;;;;;;4.43;100.00;99603.16;1787727;79;21058;-67
2022/11/02 01:14:50;;;;;;;41.80;23.73;;;;;;;4.40;100.00;99602.29;1780970;79;21034;-67
2022/11/02 01:17:17;;;;;;;43.00;22.42;;;;;;;4.38;100.00;99597.67;1777263;79;21152;-67
2022/11/02 01:19:45;;;;;;;37.78;21.70;;;;;;;4.42;100.00;99593.98;1762026;79;21018;-66
2022/11/02 01:22:11;;;;;;;41.15;21.52;;;;;;;4.49;100.00;99589.29;1774770;79;21128;-67
2022/11/02 01:24:40;;;;;;;39.95;21.25;;;;;;;4.50;100.00;99583.64;1793821;79;21059;-66
2022/11/02 01:27:06;;;;;;;38.83;21.73;;;;;;;4.44;100.00;99587.30;1774037;79;21141;-67
2022/11/02 01:29:32;;;;;;;37.45;20.97;;;;;;;4.41;100.00;99586.94;1772736;80;21015;-67
2022/11/02 01:31:59;;;;;;;34.90;20.90;;;;;;;4.36;100.00;99579.55;1766309;80;21058;-67
2022/11/02 01:34:26;;;;;;;37.17;21.55;;;;;;;4.32;100.00;99585.12;1792499;79;21025;-67
2022/11/02 01:36:52;;;;;;;39.78;22.37;;;;;;;4.30;100.00;99583.72;1767568;80;21667;-67
2022/11/02 01:39:18;;;;;;;34.83;20.50;;;;;;;4.28;100.00;99584.50;1790025;79;21018;-67
2022/11/02 01:41:52;;;;;;;37.28;20.55;;;;;;;4.30;100.00;99583.20;1768294;79;21061;-67
2022/11/02 01:44:30;;;;;;;38.35;21.07;;;;;;;4.36;100.00;99570.12;1782111;79;21060;-67
2022/11/02 01:47:05;;;;;;;44.58;20.97;;;;;;;4.38;100.00;99577.98;1793115;79;21568;-66
2022/11/02 01:49:35;;;;;;;37.90;21.02;;;;;;;4.32;100.00;99583.77;1759797;80;20980;-66
2022/11/02 01:52:06;;;;;;;40.58;22.02;;;;;;;4.28;100.00;99579.93;1784316;78;21033;-67
2022/11/02 01:54:38;;;;;;;36.73;21.27;;;;;;;4.25;100.00;99581.72;1786133;79;21368;-66
2022/11/02 01:57:08;;;;;;;42.65;22.80;;;;;;;4.22;100.00;99575.98;1758437;80;21106;-67
2022/11/02 01:59:43;;;;;;;36.15;22.05;;;;;;;4.17;100.00;99574.01;1782513;79;21498;-67
2022/11/02 02:02:17;;;;;;;39.30;21.90;;;;;;;4.11;100.00;99573.58;1810597;79;20999;-67
2022/11/02 02:04:46;;;;;;;40.88;21.93;;;;;;;4.10;100.00;99567.92;1803311;79;21789;-67
2022/11/02 02:07:13;;;;;;;45.73;23.77;;;;;;;4.13;100.00;99568.80;1788824;79;21058;-66
2022/11/02 02:09:40;;;;;;;43.52;23.07;;;;;;;4.13;100.00;99559.89;1799869;79;21498;-66
2022/11/02 02:12:07;;;;;;;42.67;24.47;;;;;;;4.09;100.00;99568.14;1794372;79;21027;-67
2022/11/02 02:14:33;;;;;;;;;;;;;;;4.03;100.00;99567.21;1799582;79;21019;-67
2022/11/02 02:17:17;;;;;;;41.68;24.43;;;;;;;3.98;100.00;99560.34;1783738;79;20159;-67
2022/11/02 02:20:19;;;;;;;43.23;24.02;;;;;;;3.87;100.00;99555.77;1785407;79;21034;-66
2022/11/02 02:23:42;;;;;;;38.38;22.70;;;;;;;3.83;100.00;99552.72;1784638;79;21110;-66
2022/11/02 02:26:38;;;;;;;41.73;23.12;;;;;;;3.76;100.00;99547.97;1764270;80;21070;-67
2022/11/02 02:29:38;;;;;;;44.35;23.00;;;;;;;3.81;100.00;99537.85;1787306;79;21470;-65
2022/11/02 02:32:18;;;;;;;45.03;24.02;;;;;;;3.87;100.00;99546.34;1789509;79;21038;-65
2022/11/02 02:34:58;;;;;;;41.20;22.58;;;;;;;3.84;100.00;99541.42;1805425;77;21015;-66
2022/11/02 02:37:42;;;;;;;44.98;22.27;;;;;;;3.82;100.00;99530.91;1806831;79;21062;-65
2022/11/02 02:40:20;;;;;;;48.00;25.12;;;;;;;3.80;100.00;99532.16;1806432;79;20999;-67
2022/11/02 02:42:52;;;;;;;48.63;24.05;;;;;;;3.77;100.00;99539.36;1769006;80;21113;-67
2022/11/02 02:45:26;;;;;;;44.83;23.38;;;;;;;3.77;100.00;99540.71;1764425;80;20994;-67
2022/11/02 02:48:10;;;;;;;44.40;23.42;;;;;;;3.75;100.00;99538.80;1769400;80;21572;-67
2022/11/02 02:50:45;;;;;;;39.20;22.73;;;;;;;3.79;100.00;99544.01;1798493;79;21454;-67
2022/11/02 02:53:12;;;;;;;39.38;22.17;;;;;;;3.85;100.00;99554.66;1774636;79;21609;-67
2022/11/02 02:55:45;;;;;;;41.20;22.52;;;;;;;3.83;100.00;99557.27;1786973;79;21029;-67
2022/11/02 02:58:19;;;;;;;39.35;23.45;;;;;;;3.67;100.00;99556.09;1751490;80;21558;-67
2022/11/02 03:00:46;;;;;;;39.95;23.65;;;;;;;3.51;100.00;99556.75;1794883;79;21531;-67
2022/11/02 03:03:19;;;;;;;39.80;23.75;;;;;;;3.38;100.00;99559.13;1801233;79;20982;-67
2022/11/02 03:06:06;;;;;;;44.20;23.45;;;;;;;3.29;100.00;99563.20;1808252;79;22371;-67
2022/11/02 03:08:37;;;;;;;38.33;21.90;;;;;;;3.27;100.00;99555.04;1808492;78;21013;-67
2022/11/02 03:11:13;;;;;;;39.95;21.93;;;;;;;3.31;100.00;99551.67;1785084;80;21153;-67
2022/11/02 03:14:01;;;;;;;41.75;22.10;;;;;;;3.35;100.00;99546.66;1786844;80;21553;-67
2022/11/02 03:16:47;;;;;;;42.60;23.30;;;;;;;3.31;100.00;99543.60;1796779;79;21073;-67
2022/11/02 03:19:44;;;;;;;45.60;23.85;;;;;;;3.29;100.00;99538.98;1802699;79;21040;-67
2022/11/02 03:22:31;;;;;;;42.85;23.05;;;;;;;3.26;100.00;99540.77;1811288;77;21078;-67
2022/11/02 03:25:29;;;;;;;41.13;21.90;;;;;;;3.21;100.00;99537.14;1811133;79;21049;-67
2022/11/02 03:28:17;;;;;;;36.40;21.10;;;;;;;3.25;100.00;99549.91;1793745;79;21013;-68
2022/11/02 03:30:46;;;;;;;41.08;21.42;;;;;;;3.32;100.00;99549.28;1799929;79;21635;-67
2022/11/02 03:33:34;;;;;;;40.90;21.12;;;;;;;3.34;100.00;99544.48;1811298;79;21014;-67
2022/11/02 03:36:11;;;;;;;40.45;22.65;;;;;;;3.31;100.00;99542.25;1780817;79;21037;-67
2022/11/02 03:38:45;;;;;;;39.78;21.70;;;;;;;3.28;100.00;99544.06;1803520;79;21002;-68
2022/11/02 03:41:12;;;;;;;35.52;20.43;;;;;;;3.28;100.00;99537.86;1786326;79;21080;-67
2022/11/02 03:43:39;;;;;;;36.40;20.88;;;;;;;3.25;100.00;99531.08;1807530;79;20961;-67
2022/11/02 03:46:07;;;;;;;38.33;20.97;;;;;;;3.23;100.00;99530.98;1792420;79;21097;-67
2022/11/02 03:48:38;;;;;;;35.52;20.05;;;;;;;3.29;100.00;99534.95;1791398;79;21461;-67
2022/11/02 03:51:07;;;;;;;34.70;19.85;;;;;;;3.35;100.00;99527.82;1792910;79;21013;-67
2022/11/02 03:53:53;;;;;;;38.95;21.17;;;;;;;3.31;100.00;99537.39;1788542;79;20972;-67
2022/11/02 03:56:25;;;;;;;37.13;21.42;;;;;;;3.19;100.00;99537.34;1799541;79;21038;-67
2022/11/02 03:58:53;;;;;;;36.58;21.50;;;;;;;3.09;100.00;99541.12;1807165;79;21307;-67
2022/11/02 04:01:20;;;;;;;36.95;20.75;;;;;;;3.00;100.00;99537.13;1795291;79;21731;-67
2022/11/02 04:03:47;;;;;;;35.00;19.77;;;;;;;2.94;100.00;99537.48;1806292;79;21056;-67
2022/11/02 04:06:15;;;;;;;36.33;19.77;;;;;;;2.95;100.00;99536.97;1792152;79;21076;-67
2022/11/02 04:08:44;;;;;;;36.48;20.17;;;;;;;3.02;100.00;99530.98;1783232;79;21037;-67
2022/11/02 04:16:43;;;;;;;39.40;22.20;;;;;;;3.20;100.00;99524.20;1773044;79;21073;-67
2022/11/02 04:19:27;;;;;;;35.63;20.32;;;;;;;3.18;100.00;99522.80;1798465;79;21021;-67
2022/11/02 04:27:28;;;;;;;38.25;20.82;;;;;;;3.19;100.00;99538.70;1790376;79;20132;-67
2022/11/02 04:29:56;;;;;;;38.02;20.15;;;;;;;3.14;100.00;99530.51;1791501;79;20990;-67
2022/11/02 04:35:11;;;;;;;34.08;20.80;;;;;;;3.19;100.00;99534.66;1789321;77;21563;-67
2022/11/02 04:40:29;;;;;;;37.60;21.50;;;;;;;3.16;100.00;99526.23;1784006;79;20939;-67
2022/11/02 04:42:56;;;;;;;38.53;20.75;;;;;;;3.15;100.00;99527.30;1801928;79;21002;-67
2022/11/02 04:45:23;;;;;;;39.08;21.57;;;;;;;3.17;100.00;99525.19;1791529;79;20973;-67
2022/11/02 04:47:51;;;;;;;35.98;21.45;;;;;;;3.19;100.00;99519.07;1796818;79;21955;-67
2022/11/02 04:50:17;;;;;;;;;;;;;;;3.27;100.00;99517.38;1814106;79;21045;-67
2022/11/02 04:52:44;;;;;;;42.93;22.52;;;;;;;3.29;100.00;99508.57;1800595;79;20152;-67
2022/11/02 04:55:11;;;;;;;40.38;22.48;;;;;;;3.17;100.00;99511.73;1787059;79;20993;-67
2022/11/02 04:57:38;;;;;;;;;;;;;;;3.13;100.00;99510.03;1810490;79;21572;-67
2022/11/02 05:00:08;;;;;;;40.92;23.38;;;;;;;3.11;100.00;99510.80;1779396;79;20120;-67
2022/11/02 05:02:35;;;;;;;42.03;22.00;;;;;;;3.01;100.00;99508.64;1813788;79;21054;-67
2022/11/02 05:05:01;;;;;;;35.43;21.65;;;;;;;3.00;100.00;99508.88;1784581;79;20994;-67
2022/11/02 05:07:27;;;;;;;38.02;21.23;;;;;;;3.04;100.00;99508.73;1789501;79;21058;-67
2022/11/02 05:09:54;;;;;;;39.95;22.42;;;;;;;3.09;100.00;99511.53;1811040;79;21022;-67
2022/11/02 05:12:20;;;;;;;;;;;;;;;3.01;100.00;99497.87;1796728;79;21057;-67
2022/11/02 05:14:47;;;;;;;37.53;22.17;;;;;;;2.96;100.00;99503.66;1805969;79;20356;-67
2022/11/02 05:17:16;;;;;;;39.08;22.87;;;;;;;2.82;100.00;99499.51;1809648;79;21054;-67
2022/11/02 05:19:44;;;;;;;38.00;22.05;;;;;;;2.79;100.00;99494.59;1798388;79;21096;-67
2022/11/02 05:22:11;;;;;;;36.15;21.57;;;;;;;2.82;100.00;99496.83;1792059;79;21817;-67
2022/11/02 05:24:39;;;;;;;36.77;21.25;;;;;;;2.85;100.00;99495.02;1790284;79;21033;-67
2022/11/02 05:27:06;;;;;;;33.70;20.72;;;;;;;2.90;100.00;99489.27;1782545;79;21454;-67
2022/11/02 05:29:34;;;;;;;42.35;23.32;;;;;;;2.88;100.00;99495.38;1783631;79;21073;-67
2022/11/02 05:32:01;;;;;;;40.45;23.85;;;;;;;2.87;100.00;99492.94;1797375;79;21572;-67
2022/11/02 05:34:28;;;;;;;36.60;22.82;;;;;;;2.87;100.00;99493.73;1792210;79;21025;-67
2022/11/02 05:36:54;;;;;;;;;;;;;;;2.87;100.00;99495.63;1802403;79;21564;-67
2022/11/02 05:39:21;;;;;;;34.92;21.65;;;;;;;2.85;100.00;99499.88;1795752;79;20151;-67
2022/11/02 05:41:47;;;;;;;37.35;21.40;;;;;;;2.77;100.00;99500.70;1789140;79;21206;-67
2022/11/02 05:44:15;;;;;;;37.42;21.27;;;;;;;2.84;100.00;99504.95;1798208;79;21030;-67
2022/11/02 05:46:43;;;;;;;40.03;22.87;;;;;;;2.94;100.00;99505.22;1781488;80;21922;-66
2022/11/02 05:49:10;;;;;;;37.25;22.65;;;;;;;3.03;100.00;99500.88;1793939;79;21033;-66
2022/11/02 05:51:38;;;;;;;39.53;22.90;;;;;;;3.05;100.00;99502.28;1785692;79;21045;-67
2022/11/02 05:54:05;;;;;;;41.58;23.42;;;;;;;3.02;100.00;99501.39;1766103;80;21021;-66
2022/11/02 05:56:32;;;;;;;;;;;;;;;3.01;100.00;99507.84;1762730;81;21063;-67
2022/11/02 05:58:59;;;;;;;37.80;21.97;;;;;;;3.04;100.00;99511.94;1767298;80;20501;-68
2022/11/02 06:01:26;;;;;;;;;;;;;;;3.08;100.00;99515.81;1762281;80;21091;-69
2022/11/02 06:03:52;;;;;;;38.98;23.40;;;;;;;3.17;100.00;99515.25;1768011;80;20486;-67
2022/11/02 06:06:18;;;;;;;41.85;24.32;;;;;;;3.21;100.00;99523.16;1755748;80;20990;-67
2022/11/02 06:08:46;;;;;;;42.93;24.87;;;;;;;3.31;100.00;99518.05;1740256;81;21673;-66
2022/11/02 06:11:13;;;;;;;56.50;25.85;;;;;;;3.41;100.00;99525.02;1750031;80;21124;-68
2022/11/02 06:13:40;;;;;;;43.98;24.37;;;;;;;3.45;100.00;99523.52;1764401;81;21086;-67
2022/11/02 06:16:09;;;;;;;37.65;23.73;;;;;;;3.58;100.00;99511.70;1730899;81;21092;-66
2022/11/02 06:18:37;;;;;;;44.13;23.55;;;;;;;3.80;100.00;99519.53;1759805;80;21503;-66
2022/11/02 06:21:04;;;;;;;39.67;23.18;;;;;;;3.94;100.00;99520.11;1753234;81;21043;-66
2022/11/02 06:23:31;;;;;;;44.90;25.17;;;;;;;4.00;100.00;99517.85;1763219;81;21058;-68
2022/11/02 06:25:58;;;;;;;42.88;24.27;;;;;;;4.09;100.00;99518.30;1749808;81;21082;-67
2022/11/02 06:28:25;;;;;;;39.45;21.50;;;;;;;4.21;100.00;99517.26;1761176;81;21011;-67
2022/11/02 06:30:51;;;;;;;39.63;21.55;;;;;;;4.37;100.00;99521.09;1768725;80;21069;-67
2022/11/02 06:33:18;;;;;;;39.25;20.80;;;;;;;4.56;100.00;99519.89;1770287;81;21066;-68
2022/11/02 06:35:46;;;;;;;;;;;;;;;4.78;100.00;99520.08;1772922;80;21149;-68
2022/11/02 06:38:13;;;;;;;36.38;20.88;;;;;;;4.90;100.00;99523.53;1757715;81;20124;-67
2022/11/02 06:40:40;;;;;;;41.25;21.82;;;;;;;4.88;100.00;99518.40;1756653;81;21082;-67
2022/11/02 06:43:07;;;;;;;40.12;22.52;;;;;;;4.97;100.00;99524.21;1745598;81;21621;-67
2022/11/02 06:45:35;;;;;;;37.83;22.35;;;;;;;5.08;100.00;99526.05;1757568;81;21053;-67
2022/11/02 06:48:01;;;;;;;41.25;23.52;;;;;;;5.18;100.00;99526.23;1762195;81;21039;-68
2022/11/02 06:50:28;;;;;;;;;;;;;;;5.31;100.00;99524.61;1766698;81;21884;-67
2022/11/02 06:52:55;;;;;;;44.58;25.20;;;;;;;5.49;100.00;99539.21;1774353;80;20140;-66
2022/11/02 06:55:21;;;;;;;43.33;25.08;;;;;;;5.60;100.00;99534.02;1797201;79;21006;-67
2022/11/02 06:57:47;;;;;;;42.60;23.77;;;;;;;5.76;100.00;99537.24;1794127;79;21025;-68
2022/11/02 07:00:19;;;;;;;;;;;;;;;5.87;100.00;99541.78;1796611;79;21017;-68
2022/11/02 07:02:44;;;;;;;42.48;22.55;;;;;;;5.98;100.00;99546.29;1753994;80;20123;-67
2022/11/02 07:05:10;;;;;;;36.75;21.85;;;;;;;6.03;100.00;99545.00;1782624;79;20962;-67
2022/11/02 07:07:36;;;;;;;;;;;;;;;6.16;100.00;99541.98;1802213;79;21112;-68
2022/11/02 07:10:07;;;;;;;;;;;;;;;6.30;100.00;99547.32;1805315;79;20252;-67
2022/11/02 07:12:35;;;;;;;38.10;20.52;;;;;;;6.41;100.00;99541.52;1797402;79;20419;-68
2022/11/02 07:15:01;;;;;;;36.35;19.90;;;;;;;6.56;100.00;99539.00;1775269;80;20924;-67
2022/11/02 07:17:28;;;;;;;36.28;19.57;;;;;;;6.68;100.00;99537.55;1783144;79;21027;-68
2022/11/02 07:19:56;;;;;;;33.92;19.10;;;;;;;6.75;100.00;99534.12;1755822;80;20974;-68
2022/11/02 07:22:22;;;;;;;31.30;19.40;;;;;;;6.82;100.00;99530.69;1794662;79;21025;-68
2022/11/02 07:24:49;;;;;;;33.92;19.32;;;;;;;6.89;100.00;99525.90;1813468;79;20978;-67
2022/11/02 07:27:16;;;;;;;35.35;20.10;;;;;;;6.97;100.00;99526.81;1788247;79;21061;-67
2022/11/02 07:29:42;;;;;;;32.13;18.48;;;;;;;7.07;100.00;99522.86;1813756;79;21025;-67
2022/11/02 07:32:09;;;;;;;30.48;17.12;;;;;;;7.23;100.00;99527.89;1790926;77;21013;-68
2022/11/02 07:34:35;;;;;;;28.23;17.92;;;;;;;7.41;100.00;99527.00;1794155;79;21625;-68
2022/11/02 07:37:02;;;;;;;28.25;16.75;;;;;;;7.47;100.00;99524.62;1802492;79;21854;-67
2022/11/02 07:39:28;;;;;;;;;;;;;;;7.51;100.00;99518.97;1805655;79;20986;-67
2022/11/02 07:41:55;;;;;;;29.52;17.52;;;;;;;7.57;100.00;99519.03;1792027;77;20131;-68
2022/11/02 07:44:23;;;;;;;30.43;17.80;;;;;;;7.57;100.00;99513.61;1798072;79;21060;-68
2022/11/02 07:46:52;;;;;;;30.57;19.07;;;;;;;7.68;100.00;99518.05;1800549;79;21045;-68
2022/11/02 07:49:19;;;;;;;33.58;17.87;;;;;;;7.83;100.00;99518.19;1783749;79;21013;-67
2022/11/02 07:51:45;;;;;;;28.32;17.52;;;;;;;7.96;100.00;99528.05;1787221;79;21085;-67
2022/11/02 07:54:12;;;;;;;26.10;16.25;;;;;;;8.11;100.00;99531.41;1810546;79;21065;-67
2022/11/02 07:56:39;;;;;;;27.55;16.00;;;;;;;8.30;100.00;99525.86;1808142;79;21140;-67
2022/11/02 07:59:05;;;;;;;30.17;17.60;;;;;;;8.42;100.00;99514.28;1795365;79;20997;-67
2022/11/02 08:01:33;;;;;;;31.00;18.42;;;;;;;8.53;100.00;99515.68;1788706;79;21081;-67
2022/11/02 08:03:59;;;;;;;26.27;16.67;;;;;;;8.64;100.00;99516.02;1783496;77;21018;-68
2022/11/02 08:06:25;;;;;;;28.40;17.25;;;;;;;8.76;100.00;99517.41;1785502;80;22178;-67
2022/11/02 08:08:52;;;;;;;36.38;18.00;;;;;;;8.88;100.00;99512.59;1776993;80;21029;-67
2022/11/02 08:11:18;;;;;;;25.43;15.90;;;;;;;8.94;100.00;99518.30;1794636;80;21117;-67
2022/11/02 08:13:45;;;;;;;29.67;17.30;;;;;;;9.02;100.00;99524.30;1778838;80;21033;-67
2022/11/02 08:16:12;;;;;;;26.90;16.62;;;;;;;9.10;100.00;99519.18;1790890;80;21069;-68
2022/11/02 08:18:40;;;;;;;25.37;16.82;;;;;;;9.22;100.00;99517.02;1794180;78;21035;-68
2022/11/02 08:21:06;;;;;;;29.27;17.70;;;;;;;9.31;100.00;99514.61;1782265;79;21743;-68
2022/11/02 08:23:33;;;;;;;25.60;15.70;;;;;;;9.41;100.00;99520.05;1767573;80;21077;-67
2022/11/02 08:25:59;;;;;;;;;;;;;;;9.53;100.00;99518.45;1797633;80;21117;-68
2022/11/02 08:28:30;;;;;;;29.05;16.73;;;;;;;9.69;100.00;99522.27;1772543;80;20145;-68
2022/11/02 08:30:58;;;;;;;25.80;15.78;;;;;;;9.75;100.00;99514.91;1771976;79;21030;-67
2022/11/02 08:33:24;;;;;;;23.02;15.48;;;;;;;9.85;100.00;99503.49;1779658;79;20987;-67
2022/11/02 08:35:52;;;;;;;26.97;16.23;;;;;;;9.94;100.00;99513.29;1783794;79;21620;-67
2022/11/02 08:38:22;;;;;;;25.08;15.85;;;;;;;10.02;100.00;99505.95;1778985;80;21046;-67
2022/11/02 08:40:50;;;;;;;23.30;15.83;;;;;;;10.11;100.00;99507.02;1778522;80;21086;-68
2022/11/02 08:43:16;;;;;;;;;;;;;;;10.22;100.00;99499.14;1773861;79;21105;-68
2022/11/02 08:45:44;;;;;;;24.30;16.55;;;;;;;10.31;100.00;99499.38;1805241;79;20513;-67
2022/11/02 08:48:11;;;;;;;29.75;19.48;;;;;;;10.28;100.00;99497.22;1800471;79;21606;-68
2022/11/02 08:50:37;;;;;;;24.47;15.40;;;;;;;10.37;100.00;99484.16;1792079;79;21302;-68
2022/11/02 08:53:04;;;;;;;25.57;17.05;;;;;;;10.45;100.00;99480.06;1802482;79;21468;-67
2022/11/02 08:55:32;;;;;;;28.57;17.23;;;;;;;10.57;100.00;99477.82;1801494;79;21013;-68
2022/11/02 08:57:59;;;;;;;27.95;18.45;;;;;;;10.68;100.00;99475.87;1812333;79;21108;-67
2022/11/02 09:00:27;;;;;;;;;;;;;;;10.80;100.00;99468.20;1802424;79;21001;-68
2022/11/02 09:03:11;;;;;;;26.25;16.15;;;;;;;10.89;100.00;99467.87;1794110;80;20163;-68
2022/11/02 09:08:26;;;;;;;29.57;18.03;;;;;;;11.04;100.00;99471.89;1798360;79;22940;-66
2022/11/02 09:10:52;;;;;;;29.72;18.85;;;;;;;11.04;100.00;99471.89;1757075;81;21065;-66
2022/11/02 09:13:24;;;;;;;24.18;16.82;;;;;;;11.15;100.00;99464.48;1719417;81;21039;-66
2022/11/02 09:15:49;;;;;;;26.82;16.67;;;;;;;11.19;100.00;99458.19;1719276;81;21220;-66
2022/11/02 09:18:15;;;;;;;25.48;17.32;;;;;;;11.20;100.00;99454.34;1741431;81;21521;-66
2022/11/02 09:20:45;;;;;;;26.87;17.05;;;;;;;11.24;100.00;99451.33;1738188;81;21103;-67
2022/11/02 09:23:11;;;;;;;25.62;17.57;;;;;;;11.27;100.00;99452.66;1738486;81;21493;-66
2022/11/02 09:25:38;;;;;;;24.60;16.82;;;;;;;11.32;100.00;99457.55;1725352;80;21086;-66
2022/11/02 09:28:07;;;;;;;27.48;17.30;;;;;;;11.41;100.00;99459.10;1741844;81;21078;-66
2022/11/02 09:30:34;;;;;;;26.65;17.67;;;;;;;11.45;100.00;99456.89;1710698;82;22162;-66
2022/11/02 09:33:04;;;;;;;26.77;17.20;;;;;;;11.52;100.00;99459.30;1730044;81;21088;-66
2022/11/02 09:35:34;;;;;;;24.70;17.95;;;;;;;11.56;100.00;99455.45;1711441;81;21532;-66
2022/11/02 09:38:02;;;;;;;27.95;17.00;;;;;;;11.57;100.00;99456.55;1703659;82;21065;-66
2022/11/02 09:40:42;;;;;;;23.12;16.07;;;;;;;11.61;100.00;99457.61;1732994;81;21050;-65
2022/11/02 09:43:51;;;;;;;24.80;16.10;;;;;;;11.63;100.00;99454.58;1713138;81;21113;-66
2022/11/02 09:46:25;;;;;;;22.35;15.45;;;;;;;11.58;100.00;99456.81;1735698;81;21099;-66
2022/11/02 09:49:11;;;;;;;23.20;15.72;;;;;;;11.61;100.00;99462.23;1721712;82;21086;-66
2022/11/02 09:51:47;;;;;;;26.05;16.60;;;;;;;11.64;100.00;99452.13;1716120;81;21122;-65
2022/11/02 09:54:28;;;;;;;24.67;16.15;;;;;;;11.67;100.00;99445.55;1733105;80;21031;-66
2022/11/02 09:57:10;;;;;;;27.85;16.70;;;;;;;11.75;100.00;99452.34;1735498;81;21184;-66
2022/11/02 09:59:36;;;;;;;23.90;15.68;;;;;;;11.86;100.00;99451.15;1730585;81;21077;-67
2022/11/02 10:02:23;;;;;;;24.25;14.55;;;;;;;11.91;100.00;99449.72;1739625;81;22034;-66
2022/11/02 10:05:14;;;;;;;23.32;15.40;;;;;;;12.00;100.00;99454.02;1730854;81;21053;-66
2022/11/02 10:08:22;;;;;;;23.45;13.95;;;;;;;12.12;100.00;99462.06;1724127;81;21106;-66
2022/11/02 10:11:08;;;;;;;22.45;14.15;;;;;;;12.18;100.00;99460.11;1726540;81;21133;-66
2022/11/02 10:14:02;;;;;;;23.92;14.85;;;;;;;12.16;100.00;99456.84;1739352;81;21015;-67
2022/11/02 10:16:37;;;;;;;21.45;14.38;;;;;;;12.14;100.00;99452.23;1738559;81;21081;-67
2022/11/02 10:19:11;;;;;;;22.52;14.65;;;;;;;12.11;100.00;99457.73;1738836;81;22351;-66
2022/11/02 10:21:38;;;;;;;23.80;14.80;;;;;;;12.09;100.00;99454.45;1720729;80;21066;-66
2022/11/02 10:24:30;;;;;;;21.10;13.13;;;;;;;12.10;100.00;99454.73;1731370;80;21937;-66
2022/11/02 10:27:00;;;;;;;22.13;15.10;;;;;;;12.14;100.00;99452.23;1721584;81;22123;-66
2022/11/02 10:29:49;;;;;;;25.60;14.47;;;;;;;12.19;100.00;99452.98;1728614;81;21719;-69
2022/11/02 10:32:16;;;;;;;24.45;14.15;;;;;;;12.27;100.00;99447.45;1712102;81;21788;-69
2022/11/02 10:34:43;;;;;;;22.65;14.33;;;;;;;12.32;100.00;99450.13;1727385;81;21058;-69
2022/11/02 10:37:27;;;;;;;22.30;13.88;;;;;;;12.35;100.00;99453.09;1737286;80;21137;-69
2022/11/02 10:40:27;;;;;;;25.88;15.20;;;;;;;12.42;100.00;99448.66;1708792;81;21184;-69
2022/11/02 10:43:06;;;;;;;21.50;13.85;;;;;;;12.50;100.00;99451.30;1729618;81;21500;-70
2022/11/02 10:45:58;;;;;;;22.65;13.38;;;;;;;12.69;100.00;99449.41;1732150;81;21184;-69
2022/11/02 10:48:45;;;;;;;20.90;13.55;;;;;;;12.83;100.00;99451.69;1734658;81;21140;-69
2022/11/02 10:51:14;;;;;;;19.00;14.25;;;;;;;12.92;100.00;99449.94;1727671;82;21097;-70
2022/11/02 10:53:46;;;;;;;21.85;13.70;;;;;;;12.98;100.00;99453.67;1741465;81;21011;-70
2022/11/02 10:56:29;;;;;;;17.23;12.82;;;;;;;13.07;100.00;99453.84;1729553;81;21042;-72
2022/11/02 10:59:11;;;;;;;21.87;14.40;;;;;;;13.10;100.00;99454.64;1729213;82;21019;-72
2022/11/02 11:01:37;;;;;;;19.35;14.15;;;;;;;13.09;100.00;99444.81;1730662;82;21055;-72
2022/11/02 11:04:06;;;;;;;24.15;15.40;;;;;;;13.10;100.00;99442.34;1721778;82;21063;-70
2022/11/02 11:06:38;;;;;;;26.52;16.50;;;;;;;13.13;100.00;99441.75;1731446;81;21093;-70
2022/11/02 11:09:18;;;;;;;24.35;15.43;;;;;;;13.22;100.00;99441.33;1716375;81;21019;-70
2022/11/02 11:12:03;;;;;;;28.65;16.15;;;;;;;13.38;100.00;99440.55;1712191;81;21081;-70
2022/11/02 11:14:36;;;;;;;25.50;15.20;;;;;;;13.51;100.00;99437.05;1745716;81;21172;-70
2022/11/02 11:17:02;;;;;;;20.88;14.38;;;;;;;13.58;100.00;99425.18;1735979;81;21146;-71
2022/11/02 11:19:37;;;;;;;22.62;14.40;;;;;;;13.68;100.00;99430.48;1725959;81;21548;-71
2022/11/02 11:22:29;;;;;;;21.68;13.43;;;;;;;13.81;100.00;99424.25;1740884;81;21070;-70
2022/11/02 11:25:21;;;;;;;19.10;13.55;;;;;;;13.89;100.00;99424.91;1727303;81;21029;-71
2022/11/02 11:27:50;;;;;;;23.75;14.75;;;;;;;13.96;100.00;99425.88;1728152;82;21165;-71
2022/11/02 11:30:28;;;;;;;21.10;13.55;;;;;;;14.02;100.00;99423.88;1738387;81;21553;-71
2022/11/02 11:32:58;;;;;;;21.57;13.40;;;;;;;14.09;100.00;99438.80;1742168;81;21054;-71
2022/11/02 11:35:38;;;;;;;21.00;13.15;;;;;;;14.06;100.00;99429.83;1741616;81;21034;-71
2022/11/02 11:38:13;;;;;;;20.40;13.40;;;;;;;13.98;100.00;99424.22;1755431;81;21097;-70
2022/11/02 11:40:46;;;;;;;22.77;12.73;;;;;;;13.88;100.00;99421.13;1736738;81;21045;-71
2022/11/02 11:43:15;;;;;;;19.48;12.50;;;;;;;13.85;100.00;99421.14;1753987;81;21105;-71
2022/11/02 11:46:02;;;;;;;18.35;11.85;;;;;;;13.87;100.00;99426.33;1745274;81;21356;-70
2022/11/02 11:48:39;;;;;;;17.05;12.05;;;;;;;13.77;100.00;99427.88;1738829;80;21560;-71
2022/11/02 11:51:27;;;;;;;19.32;12.33;;;;;;;13.57;100.00;99433.70;1722602;81;21656;-71
2022/11/02 11:54:28;;;;;;;20.97;12.43;;;;;;;13.45;100.00;99436.89;1723754;81;21340;-70
2022/11/02 11:57:30;;;;;;;16.82;11.68;;;;;;;13.37;100.00;99429.35;1733262;81;21094;-70
2022/11/02 12:00:03;;;;;;;20.57;13.30;;;;;;;13.33;100.00;99435.16;1717436;81;21054;-71
2022/11/02 12:02:33;;;;;;;23.15;12.68;;;;;;;13.24;100.00;99432.30;1708848;81;21665;-72